createdAt,value
2023-05-19T00:01:20.453Z,9.40
2023-05-19T00:03:54.835Z,9.40
2023-05-19T00:06:31.898Z,9.30
2023-05-19T00:09:03.800Z,9.30
2023-05-19T00:11:31.242Z,9.30
2023-05-19T00:13:59.859Z,9.30
2023-05-19T00:16:28.292Z,9.30
2023-05-19T00:18:55.331Z,9.30
2023-05-19T00:21:22.269Z,9.30
2023-05-19T00:23:49.249Z,9.20
2023-05-19T00:26:16.161Z,9.20
2023-05-19T00:28:43.212Z,9.20
2023-05-19T00:31:10.236Z,9.20
2023-05-19T00:33:37.154Z,9.20
2023-05-19T00:36:04.548Z,9.20
2023-05-19T00:38:33.544Z,9.20
2023-05-19T00:41:02.297Z,9.20
2023-05-19T00:43:34.410Z,9.20
2023-05-19T00:46:02.010Z,9.10
2023-05-19T00:48:29.116Z,9.20
2023-05-19T00:51:02.450Z,9.10
2023-05-19T00:53:29.915Z,9.10
2023-05-19T00:55:57.348Z,9.10
2023-05-19T00:58:29.337Z,9.10
2023-05-19T01:01:04.613Z,9.00
2023-05-19T01:03:33.023Z,9.00
2023-05-19T01:06:05.082Z,8.90
2023-05-19T01:08:33.657Z,8.90
2023-05-19T01:11:00.712Z,8.80
2023-05-19T01:13:28.268Z,8.80
2023-05-19T01:16:01.360Z,8.70
2023-05-19T01:19:01.719Z,8.70
2023-05-19T01:21:56.625Z,8.70
2023-05-19T01:24:56.950Z,8.60
2023-05-19T01:27:54.624Z,8.60
2023-05-19T01:30:34.105Z,8.60
2023-05-19T01:33:04.619Z,8.50
2023-05-19T01:35:33.513Z,8.50
2023-05-19T01:38:02.192Z,8.50
2023-05-19T01:40:30.544Z,8.50
2023-05-19T01:43:00.255Z,8.50
2023-05-19T01:45:29.533Z,8.50
2023-05-19T01:47:59.148Z,8.40
2023-05-19T01:50:27.174Z,8.40
2023-05-19T01:52:54.941Z,8.40
2023-05-19T01:55:23.865Z,8.40
2023-05-19T01:58:15.657Z,8.40
2023-05-19T02:01:01.921Z,8.40
2023-05-19T02:03:59.366Z,8.40
2023-05-19T02:07:03.777Z,8.40
2023-05-19T02:09:48.217Z,8.40
2023-05-19T02:12:37.713Z,8.40
2023-05-19T02:15:19.620Z,8.40
2023-05-19T02:17:50.807Z,8.30
2023-05-19T02:20:18.666Z,8.30
2023-05-19T02:22:46.045Z,8.30
2023-05-19T02:25:13.164Z,8.40
2023-05-19T02:27:40.407Z,8.30
2023-05-19T02:30:08.490Z,8.30
2023-05-19T02:32:36.620Z,8.30
2023-05-19T02:35:04.135Z,8.30
2023-05-19T02:37:32.648Z,8.30
2023-05-19T02:39:59.757Z,8.30
2023-05-19T02:42:26.774Z,8.30
2023-05-19T02:44:55.216Z,8.30
2023-05-19T02:47:22.278Z,8.30
2023-05-19T02:49:49.457Z,8.30
2023-05-19T02:52:16.453Z,8.30
2023-05-19T02:54:43.567Z,8.30
2023-05-19T02:57:11.282Z,8.30
2023-05-19T02:59:38.288Z,8.30
2023-05-19T03:02:05.477Z,8.30
2023-05-19T03:04:32.496Z,8.30
2023-05-19T03:06:59.584Z,8.30
2023-05-19T03:09:26.606Z,8.30
2023-05-19T03:11:53.586Z,8.30
2023-05-19T03:14:24.178Z,8.20
2023-05-19T03:16:51.595Z,8.30
2023-05-19T03:19:18.777Z,8.20
2023-05-19T03:21:46.407Z,8.20
2023-05-19T03:24:13.846Z,8.20
2023-05-19T03:26:41.089Z,8.20
2023-05-19T03:29:08.418Z,8.30
2023-05-19T03:31:35.307Z,8.20
2023-05-19T03:34:03.288Z,8.20
2023-05-19T03:36:39.351Z,8.30
2023-05-19T03:39:07.010Z,8.20
2023-05-19T03:41:33.957Z,8.20
2023-05-19T03:44:01.461Z,8.30
2023-05-19T03:46:28.593Z,8.30
2023-05-19T03:48:55.685Z,8.30
2023-05-19T03:51:22.580Z,8.30
2023-05-19T03:53:49.640Z,8.30
2023-05-19T03:56:18.240Z,8.30
2023-05-19T03:58:47.094Z,8.30
2023-05-19T04:01:14.197Z,8.30
2023-05-19T04:03:41.612Z,8.30
2023-05-19T04:06:09.071Z,8.30
2023-05-19T04:08:36.212Z,8.30
2023-05-19T04:11:03.239Z,8.30
2023-05-19T04:13:30.820Z,8.30
2023-05-19T04:15:58.057Z,8.40
2023-05-19T04:18:26.900Z,8.40
2023-05-19T04:20:55.173Z,8.40
2023-05-19T04:23:22.016Z,8.40
2023-05-19T04:25:49.482Z,8.50
2023-05-19T04:28:16.565Z,8.50
2023-05-19T04:30:46.716Z,8.50
2023-05-19T04:33:13.897Z,8.50
2023-05-19T04:35:40.910Z,8.50
2023-05-19T04:38:07.811Z,8.50
2023-05-19T04:40:34.989Z,8.50
2023-05-19T04:43:02.286Z,8.60
2023-05-19T04:45:30.168Z,8.60
2023-05-19T04:47:58.294Z,8.70
2023-05-19T04:50:25.530Z,8.70
2023-05-19T04:52:52.616Z,8.70
2023-05-19T04:55:19.824Z,8.70
2023-05-19T04:57:47.063Z,8.70
2023-05-19T05:00:14.554Z,8.80
2023-05-19T05:02:42.963Z,8.80
2023-05-19T05:05:10.448Z,8.90
2023-05-19T05:07:37.381Z,8.90
2023-05-19T05:10:04.788Z,8.90
2023-05-19T05:12:32.618Z,9.10
2023-05-19T05:14:59.934Z,9.10
2023-05-19T05:17:27.336Z,9.20
2023-05-19T05:19:54.599Z,9.20
2023-05-19T05:22:21.769Z,9.30
2023-05-19T05:24:49.140Z,9.40
2023-05-19T05:27:16.177Z,9.40
2023-05-19T05:29:43.526Z,9.50
2023-05-19T05:32:10.610Z,9.60
2023-05-19T05:34:39.896Z,9.70
2023-05-19T05:37:06.939Z,9.90
2023-05-19T05:39:33.959Z,10.00
2023-05-19T05:42:01.156Z,10.20
2023-05-19T05:44:28.129Z,10.30
2023-05-19T05:46:55.249Z,10.30
2023-05-19T05:49:22.437Z,10.50
2023-05-19T05:52:04.424Z,10.60
2023-05-19T05:54:33.329Z,10.80
2023-05-19T05:57:00.738Z,10.90
2023-05-19T05:59:27.726Z,10.90
2023-05-19T06:01:54.633Z,11.10
2023-05-19T06:04:21.642Z,11.20
2023-05-19T06:06:48.562Z,11.30
2023-05-19T06:09:15.593Z,11.40
2023-05-19T06:11:42.458Z,11.40
2023-05-19T06:14:09.369Z,11.20
2023-05-19T06:16:36.335Z,11.40
2023-05-19T06:19:03.419Z,11.50
2023-05-19T06:21:30.895Z,11.60
2023-05-19T06:23:57.770Z,11.60
2023-05-19T06:26:24.665Z,11.70
2023-05-19T06:28:51.459Z,11.60
2023-05-19T06:31:18.462Z,11.50
2023-05-19T06:33:45.324Z,11.40
2023-05-19T06:36:12.399Z,11.50
2023-05-19T06:38:39.304Z,11.80
2023-05-19T06:41:06.957Z,11.90
2023-05-19T06:43:33.810Z,12.10
2023-05-19T06:46:00.790Z,12.10
2023-05-19T06:48:27.684Z,12.00
2023-05-19T06:50:54.612Z,12.10
2023-05-19T06:53:21.458Z,12.10
2023-05-19T06:55:58.831Z,12.50
2023-05-19T06:58:27.179Z,12.80
2023-05-19T07:00:54.158Z,12.60
2023-05-19T07:03:21.364Z,12.70
2023-05-19T07:05:48.521Z,12.70
2023-05-19T07:08:15.398Z,12.60
2023-05-19T07:10:42.397Z,12.60
2023-05-19T07:13:09.401Z,12.70
2023-05-19T07:15:36.420Z,12.70
2023-05-19T07:18:03.412Z,12.70
2023-05-19T07:20:30.681Z,12.80
2023-05-19T07:22:57.726Z,12.80
2023-05-19T07:25:26.169Z,12.90
2023-05-19T07:27:53.120Z,13.10
2023-05-19T07:30:19.932Z,13.40
2023-05-19T07:32:46.905Z,13.20
2023-05-19T07:35:13.916Z,13.40
2023-05-19T07:37:40.840Z,13.20
2023-05-19T07:40:08.478Z,13.20
2023-05-19T07:42:35.658Z,13.20
2023-05-19T07:45:03.580Z,13.20
2023-05-19T07:47:31.073Z,13.20
2023-05-19T07:49:57.936Z,13.00
2023-05-19T07:52:24.877Z,13.00
2023-05-19T07:54:51.820Z,13.10
2023-05-19T07:57:19.113Z,13.10
2023-05-19T07:59:46.038Z,13.20
2023-05-19T08:02:13.058Z,13.30
2023-05-19T08:04:40.097Z,13.40
2023-05-19T08:07:07.097Z,13.40
2023-05-19T08:09:34.021Z,13.30
2023-05-19T08:12:01.788Z,13.40
2023-05-19T08:14:28.703Z,13.50
2023-05-19T08:16:55.541Z,13.50
2023-05-19T08:19:22.526Z,13.50
2023-05-19T08:21:49.726Z,13.40
2023-05-19T08:24:16.675Z,13.30
2023-05-19T08:26:44.534Z,13.30
2023-05-19T08:29:11.480Z,13.10
2023-05-19T08:31:38.384Z,13.10
2023-05-19T08:34:05.343Z,12.90
2023-05-19T08:36:33.875Z,12.70
2023-05-19T08:39:00.932Z,12.70
2023-05-19T08:41:27.971Z,12.70
2023-05-19T08:43:55.397Z,12.80
2023-05-19T08:46:25.022Z,12.80
2023-05-19T08:48:56.767Z,12.90
2023-05-19T08:51:35.987Z,13.00
2023-05-19T08:54:33.822Z,13.10
2023-05-19T08:57:01.264Z,12.90
2023-05-19T08:59:29.157Z,12.80
2023-05-19T09:01:56.311Z,12.80
2023-05-19T09:04:29.792Z,12.70
2023-05-19T09:06:58.929Z,12.70
2023-05-19T09:09:26.156Z,12.60
2023-05-19T09:11:53.216Z,12.70
2023-05-19T09:14:20.092Z,12.40
2023-05-19T09:16:51.007Z,12.40
2023-05-19T09:19:18.226Z,12.60
2023-05-19T09:21:45.921Z,12.60
2023-05-19T09:24:12.986Z,12.70
2023-05-19T09:26:42.098Z,12.70
2023-05-19T09:29:18.527Z,12.80
2023-05-19T09:31:54.112Z,13.10
2023-05-19T09:34:22.481Z,13.20
2023-05-19T09:36:49.729Z,13.40
2023-05-19T09:39:17.928Z,13.50
2023-05-19T09:41:45.543Z,13.60
2023-05-19T09:44:21.366Z,13.90
2023-05-19T09:46:53.089Z,14.10
2023-05-19T09:49:24.705Z,14.40
2023-05-19T09:51:54.854Z,14.10
2023-05-19T09:54:25.851Z,14.10
2023-05-19T09:57:04.848Z,14.00
2023-05-19T09:59:33.999Z,13.90
2023-05-19T10:02:02.434Z,14.00
2023-05-19T10:04:30.849Z,14.10
2023-05-19T10:07:05.543Z,14.30
2023-05-19T10:09:34.108Z,14.30
2023-05-19T10:12:02.258Z,14.30
2023-05-19T10:14:30.098Z,14.10
2023-05-19T10:16:58.872Z,13.80
2023-05-19T10:19:27.726Z,13.70
2023-05-19T10:21:55.068Z,13.70
2023-05-19T10:24:22.354Z,13.70
2023-05-19T10:27:05.592Z,13.40
2023-05-19T10:29:36.605Z,13.20
2023-05-19T10:32:10.219Z,13.30
2023-05-19T10:35:02.890Z,13.30
2023-05-19T10:37:51.638Z,13.10
2023-05-19T10:40:37.170Z,13.10
2023-05-19T10:43:20.016Z,13.20
2023-05-19T10:45:53.220Z,13.30
2023-05-19T10:48:24.316Z,13.40
2023-05-19T10:50:55.380Z,13.70
2023-05-19T10:53:22.877Z,13.50
2023-05-19T10:55:59.132Z,13.30
2023-05-19T10:58:39.659Z,13.30
2023-05-19T11:01:13.540Z,13.30
2023-05-19T11:03:54.679Z,13.40
2023-05-19T11:06:29.184Z,13.70
2023-05-19T11:08:58.838Z,13.90
2023-05-19T11:11:26.376Z,13.90
2023-05-19T11:13:55.707Z,13.90
2023-05-19T11:16:35.010Z,13.70
2023-05-19T11:19:02.226Z,13.50
2023-05-19T11:21:52.734Z,13.30
2023-05-19T11:24:40.487Z,13.30
2023-05-19T11:27:27.347Z,13.50
2023-05-19T11:30:02.272Z,13.60
2023-05-19T11:32:31.161Z,13.90
2023-05-19T11:34:58.439Z,13.90
2023-05-19T11:37:25.627Z,14.20
2023-05-19T11:39:53.175Z,14.30
2023-05-19T11:42:20.399Z,14.30
2023-05-19T11:44:47.637Z,14.80
2023-05-19T11:47:15.905Z,15.00
2023-05-19T11:49:48.577Z,15.20
2023-05-19T11:52:15.621Z,14.80
2023-05-19T11:54:42.519Z,14.90
2023-05-19T11:57:14.216Z,14.60
2023-05-19T11:59:45.547Z,14.50
2023-05-19T12:02:22.748Z,14.50
2023-05-19T12:04:50.241Z,14.30
2023-05-19T12:07:22.984Z,14.30
2023-05-19T12:09:51.773Z,14.20
2023-05-19T12:12:20.341Z,14.00
2023-05-19T12:14:49.093Z,13.90
2023-05-19T12:17:20.642Z,13.90
2023-05-19T12:19:48.980Z,13.90
2023-05-19T12:22:17.270Z,13.60
2023-05-19T12:24:45.260Z,13.40
2023-05-19T12:27:24.616Z,13.30
2023-05-19T12:29:53.583Z,13.00
2023-05-19T12:32:28.972Z,12.90
2023-05-19T12:34:56.661Z,13.00
2023-05-19T12:37:27.711Z,13.00
2023-05-19T12:39:56.509Z,12.90
2023-05-19T12:42:24.308Z,13.00
2023-05-19T12:44:52.647Z,13.10
2023-05-19T12:47:21.128Z,13.20
2023-05-19T12:50:10.558Z,13.40
2023-05-19T12:52:51.042Z,13.40
2023-05-19T12:55:20.562Z,13.50
2023-05-19T12:57:54.690Z,13.50
2023-05-19T13:00:25.637Z,13.50
2023-05-19T13:03:06.162Z,13.50
2023-05-19T13:05:37.998Z,13.60
2023-05-19T13:08:09.900Z,13.70
2023-05-19T13:10:39.147Z,14.10
2023-05-19T13:13:07.382Z,15.10
2023-05-19T13:15:38.556Z,16.10
2023-05-19T13:18:08.793Z,16.60
2023-05-19T13:20:37.369Z,17.00
2023-05-19T13:23:05.794Z,16.80
2023-05-19T13:25:34.504Z,16.60
2023-05-19T13:28:05.363Z,16.40
2023-05-19T13:30:33.653Z,16.70
2023-05-19T13:33:00.964Z,17.40
2023-05-19T13:35:27.913Z,17.50
2023-05-19T13:37:54.980Z,17.60
2023-05-19T13:40:23.954Z,18.60
2023-05-19T13:42:50.993Z,19.00
2023-05-19T13:45:18.423Z,19.10
2023-05-19T13:47:45.384Z,19.20
2023-05-19T13:50:12.620Z,18.70
2023-05-19T13:52:39.596Z,18.60
2023-05-19T13:55:07.658Z,18.60
2023-05-19T13:57:35.381Z,18.90
2023-05-19T14:00:03.769Z,18.30
2023-05-19T14:02:31.147Z,18.60
2023-05-19T14:04:58.272Z,18.40
2023-05-19T14:07:25.731Z,18.20
2023-05-19T14:09:53.066Z,18.40
2023-05-19T14:12:23.191Z,18.30
2023-05-19T14:14:52.301Z,18.40
2023-05-19T14:17:19.323Z,18.30
2023-05-19T14:19:46.223Z,18.20
2023-05-19T14:22:13.508Z,18.00
2023-05-19T14:24:41.622Z,17.60
2023-05-19T14:27:08.551Z,16.90
2023-05-19T14:29:35.716Z,17.00
2023-05-19T14:32:03.891Z,16.70
2023-05-19T14:34:30.987Z,16.90
2023-05-19T14:36:57.974Z,16.80
2023-05-19T14:39:25.083Z,16.50
2023-05-19T14:41:53.031Z,16.70
2023-05-19T14:44:20.018Z,16.50
2023-05-19T14:46:46.952Z,16.40
2023-05-19T14:49:13.896Z,16.30
2023-05-19T14:51:40.970Z,16.70
2023-05-19T14:54:07.891Z,16.80
2023-05-19T14:56:34.987Z,17.00
2023-05-19T14:59:01.985Z,17.10
2023-05-19T15:01:28.838Z,16.80
2023-05-19T15:03:55.938Z,16.60
2023-05-19T15:06:23.582Z,16.30
2023-05-19T15:08:50.567Z,16.10
2023-05-19T15:11:17.442Z,16.10
2023-05-19T15:13:44.392Z,16.10
2023-05-19T15:18:41.235Z,15.90
2023-05-19T15:21:08.300Z,15.80
2023-05-19T15:23:35.120Z,15.70
2023-05-19T15:26:02.128Z,15.70
2023-05-19T15:28:28.972Z,15.80
2023-05-19T15:30:55.850Z,15.80
2023-05-19T15:33:22.764Z,15.80
2023-05-19T15:35:51.777Z,15.90
2023-05-19T15:38:21.546Z,15.80
2023-05-19T15:40:48.472Z,15.80
2023-05-19T15:43:15.399Z,15.90
2023-05-19T15:45:42.292Z,16.00
2023-05-19T15:48:09.202Z,16.10
2023-05-19T15:50:36.498Z,16.00
2023-05-19T15:53:03.673Z,16.00
2023-05-19T15:55:30.622Z,16.00
2023-05-19T15:57:57.516Z,16.20
2023-05-19T16:00:24.492Z,16.40
2023-05-19T16:02:51.491Z,16.50
2023-05-19T16:05:18.739Z,16.70
2023-05-19T16:07:45.644Z,16.80
2023-05-19T16:10:12.591Z,16.80
2023-05-19T16:12:39.554Z,16.80
2023-05-19T16:15:07.075Z,16.90
2023-05-19T16:17:34.795Z,17.00
2023-05-19T16:20:01.785Z,17.10
2023-05-19T16:22:30.280Z,16.90
2023-05-19T16:24:57.251Z,16.90
2023-05-19T16:27:24.254Z,16.90
2023-05-19T16:29:51.256Z,16.70
2023-05-19T16:32:18.156Z,16.60
2023-05-19T16:34:45.048Z,16.50
2023-05-19T16:37:11.888Z,16.50
2023-05-19T16:39:40.247Z,16.50
2023-05-19T16:42:07.388Z,16.50
2023-05-19T16:44:34.253Z,16.60
2023-05-19T16:47:01.225Z,16.60
2023-05-19T16:49:28.395Z,16.50
2023-05-19T16:51:56.698Z,16.40
2023-05-19T16:54:23.617Z,16.40
2023-05-19T16:56:51.357Z,16.30
2023-05-19T16:59:18.338Z,16.20
2023-05-19T17:01:45.374Z,16.20
2023-05-19T17:04:12.252Z,16.20
2023-05-19T17:06:39.109Z,16.10
2023-05-19T17:09:06.138Z,16.10
2023-05-19T17:11:33.118Z,16.10
2023-05-19T17:14:00.059Z,16.10
2023-05-19T17:16:26.921Z,16.10
2023-05-19T17:18:53.939Z,16.10
2023-05-19T17:21:21.554Z,16.10
2023-05-19T17:23:49.437Z,16.10
2023-05-19T17:26:16.713Z,16.00
2023-05-19T17:28:43.570Z,15.90
2023-05-19T17:31:12.324Z,15.90
2023-05-19T17:33:39.523Z,15.90
2023-05-19T17:36:07.294Z,15.70
2023-05-19T17:38:34.393Z,15.70
2023-05-19T17:41:02.441Z,15.70
2023-05-19T17:43:29.395Z,15.70
2023-05-19T17:45:57.264Z,15.70
2023-05-19T17:48:25.958Z,15.60
2023-05-19T17:50:52.793Z,15.60
2023-05-19T17:53:20.015Z,15.60
2023-05-19T17:55:51.534Z,15.50
2023-05-19T17:58:19.479Z,15.50
2023-05-19T18:00:46.669Z,15.40
2023-05-19T18:03:14.051Z,15.40
2023-05-19T18:05:43.357Z,15.40
2023-05-19T18:08:11.327Z,15.30
2023-05-19T18:10:41.561Z,15.30
2023-05-19T18:13:10.126Z,15.30
2023-05-19T18:15:37.284Z,15.30
2023-05-19T18:18:05.726Z,15.30
2023-05-19T18:20:35.449Z,15.30
2023-05-19T18:23:02.727Z,15.30
2023-05-19T18:25:29.626Z,15.30
2023-05-19T18:27:56.533Z,15.30
2023-05-19T18:30:23.808Z,15.30
2023-05-19T18:32:50.672Z,15.30
2023-05-19T18:35:17.587Z,15.20
2023-05-19T18:37:44.429Z,15.20
2023-05-19T18:40:11.521Z,15.20
2023-05-19T18:42:38.335Z,15.20
2023-05-19T18:45:06.394Z,15.10
2023-05-19T18:47:33.314Z,15.10
2023-05-19T18:50:00.315Z,15.10
2023-05-19T18:52:28.690Z,15.10
2023-05-19T18:54:55.725Z,15.10
2023-05-19T18:57:22.642Z,15.10
2023-05-19T18:59:49.541Z,15.00
2023-05-19T19:02:16.384Z,15.00
2023-05-19T19:04:43.285Z,15.00
2023-05-19T19:07:10.241Z,15.00
2023-05-19T19:09:37.251Z,15.00
2023-05-19T19:12:04.239Z,15.00
2023-05-19T19:14:31.134Z,15.00
2023-05-19T19:16:58.031Z,15.00
2023-05-19T19:19:25.108Z,15.00
2023-05-19T19:21:52.046Z,15.00
2023-05-19T19:24:18.878Z,15.00
2023-05-19T19:26:46.171Z,15.00
2023-05-19T19:29:13.053Z,15.00
2023-05-19T19:31:39.950Z,15.00
2023-05-19T19:34:09.210Z,15.00
2023-05-19T19:36:36.499Z,15.00
2023-05-19T19:39:03.484Z,15.00
2023-05-19T19:41:30.629Z,15.00
2023-05-19T19:43:57.451Z,15.00
2023-05-19T19:46:24.328Z,15.00
2023-05-19T19:48:51.322Z,15.00
2023-05-19T19:51:18.269Z,15.00
2023-05-19T19:53:45.182Z,15.00
2023-05-19T19:56:12.069Z,14.90
2023-05-19T19:58:38.935Z,14.90
2023-05-19T20:01:07.874Z,14.90
2023-05-19T20:03:35.745Z,14.90
2023-05-19T20:06:03.098Z,14.90
2023-05-19T20:08:30.013Z,14.80
2023-05-19T20:10:56.958Z,14.80
2023-05-19T20:13:24.449Z,14.80
2023-05-19T20:15:51.492Z,14.80
2023-05-19T20:18:18.412Z,14.70
2023-05-19T20:20:45.378Z,14.70
2023-05-19T20:23:13.425Z,14.70
2023-05-19T20:25:51.019Z,14.70
2023-05-19T20:28:26.376Z,14.60
2023-05-19T20:30:53.209Z,14.60
2023-05-19T20:33:20.099Z,14.60
2023-05-19T20:35:46.935Z,14.60
2023-05-19T20:38:13.914Z,14.60
2023-05-19T20:40:40.896Z,14.60
2023-05-19T20:43:07.841Z,14.60
2023-05-19T20:45:34.911Z,14.50
2023-05-19T20:48:02.804Z,14.50
2023-05-19T20:50:29.845Z,14.50
2023-05-19T20:52:56.658Z,14.50
2023-05-19T20:55:23.547Z,14.50
2023-05-19T20:57:50.406Z,14.50
2023-05-19T21:00:17.607Z,14.50
2023-05-19T21:02:44.675Z,14.50
2023-05-19T21:05:11.937Z,14.50
2023-05-19T21:07:38.884Z,14.50
2023-05-19T21:10:06.632Z,14.50
2023-05-19T21:12:34.407Z,14.50
2023-05-19T21:15:02.039Z,14.50
2023-05-19T21:17:29.220Z,14.50
2023-05-19T21:19:59.489Z,14.50
2023-05-19T21:22:26.915Z,14.50
2023-05-19T21:24:54.468Z,14.40
2023-05-19T21:27:21.386Z,14.40
2023-05-19T21:29:52.997Z,14.40
2023-05-19T21:32:20.954Z,14.40
2023-05-19T21:34:47.881Z,14.40
2023-05-19T21:37:16.408Z,14.40
2023-05-19T21:39:43.685Z,14.40
2023-05-19T21:42:10.585Z,14.40
2023-05-19T21:44:37.525Z,14.40
2023-05-19T21:47:04.482Z,14.40
2023-05-19T21:49:31.565Z,14.30
2023-05-19T21:51:58.707Z,14.30
2023-05-19T21:54:25.657Z,14.30
2023-05-19T21:56:52.596Z,14.20
2023-05-19T21:59:23.173Z,14.20
2023-05-19T22:01:50.456Z,14.20
2023-05-19T22:04:18.802Z,14.10
2023-05-19T22:06:46.139Z,14.10
2023-05-19T22:09:13.426Z,14.10
2023-05-19T22:11:40.437Z,14.10
2023-05-19T22:14:07.597Z,14.00
2023-05-19T22:16:34.620Z,14.00
2023-05-19T22:19:01.722Z,14.00
2023-05-19T22:21:28.702Z,13.90
2023-05-19T22:23:55.762Z,13.90
2023-05-19T22:26:22.917Z,13.90
2023-05-19T22:28:50.416Z,13.80
2023-05-19T22:31:17.779Z,13.80
2023-05-19T22:33:45.043Z,13.80
2023-05-19T22:36:12.419Z,13.70
2023-05-19T22:38:39.391Z,13.60
2023-05-19T22:41:06.318Z,13.50
2023-05-19T22:43:33.300Z,13.50
2023-05-19T22:46:00.243Z,13.40
2023-05-19T22:48:27.207Z,13.30
2023-05-19T22:50:54.228Z,13.30
2023-05-19T22:53:21.095Z,13.20
2023-05-19T22:55:48.032Z,13.20
2023-05-19T22:58:15.061Z,13.10
2023-05-19T23:00:41.983Z,13.10
2023-05-19T23:03:08.888Z,13.10
2023-05-19T23:05:36.874Z,13.00
2023-05-19T23:08:03.760Z,13.00
2023-05-19T23:10:30.634Z,13.00
2023-05-19T23:12:57.524Z,13.00
2023-05-19T23:15:24.357Z,13.00
2023-05-19T23:17:51.685Z,12.90
2023-05-19T23:20:18.648Z,12.90
2023-05-19T23:22:45.606Z,12.90
2023-05-19T23:25:12.457Z,12.90
2023-05-19T23:27:39.386Z,12.80
2023-05-19T23:30:06.905Z,12.70
2023-05-19T23:32:33.863Z,12.60
2023-05-19T23:35:13.092Z,12.60
2023-05-19T23:37:40.147Z,12.50
2023-05-19T23:40:08.109Z,12.40
2023-05-19T23:42:35.264Z,12.40
2023-05-19T23:45:02.403Z,12.40
2023-05-19T23:47:29.350Z,12.30
2023-05-19T23:49:56.242Z,12.30
2023-05-19T23:52:23.211Z,12.30
2023-05-19T23:54:50.241Z,12.20
2023-05-19T23:57:17.151Z,12.20
2023-05-19T23:59:44.165Z,12.10
